createdAt,value
2022-12-10T00:02:31.001Z,12.73
2022-12-10T00:05:18.098Z,11.97
2022-12-10T00:08:05.788Z,11.80
2022-12-10T00:10:52.710Z,12.30
2022-12-10T00:13:40.175Z,12.10
2022-12-10T00:16:29.210Z,13.17
2022-12-10T00:19:16.262Z,11.93
2022-12-10T00:22:03.215Z,11.50
2022-12-10T00:24:50.130Z,12.40
2022-12-10T00:27:37.043Z,12.07
2022-12-10T00:30:23.963Z,12.33
2022-12-10T00:33:10.869Z,12.17
2022-12-10T00:36:06.484Z,12.37
2022-12-10T00:38:54.180Z,12.27
2022-12-10T00:41:41.290Z,13.73
2022-12-10T00:44:28.235Z,12.43
2022-12-10T00:47:15.224Z,12.33
2022-12-10T00:50:02.311Z,11.83
2022-12-10T00:52:49.215Z,13.63
2022-12-10T00:55:36.152Z,13.90
2022-12-10T00:58:23.899Z,13.63
2022-12-10T01:01:21.157Z,13.60
2022-12-10T01:04:11.504Z,14.27
2022-12-10T01:07:00.269Z,13.67
2022-12-10T01:09:47.226Z,12.27
2022-12-10T01:12:34.438Z,12.90
2022-12-10T01:15:21.412Z,13.57
2022-12-10T01:18:08.309Z,13.47
2022-12-10T01:20:55.731Z,11.90
2022-12-10T01:23:44.460Z,11.90
2022-12-10T01:26:33.156Z,12.10
2022-12-10T01:29:20.521Z,12.53
2022-12-10T01:32:07.867Z,11.43
2022-12-10T01:34:55.253Z,11.77
2022-12-10T01:37:42.613Z,10.90
2022-12-10T01:40:30.031Z,10.70
2022-12-10T01:43:17.415Z,11.50
2022-12-10T01:46:04.837Z,11.80
2022-12-10T01:48:52.709Z,11.93
2022-12-10T01:51:41.041Z,10.27
2022-12-10T01:54:36.461Z,10.53
2022-12-10T01:57:28.774Z,12.13
2022-12-10T02:00:15.831Z,10.97
2022-12-10T02:03:17.900Z,11.50
2022-12-10T02:06:33.702Z,10.23
2022-12-10T02:09:25.911Z,10.80
2022-12-10T02:12:35.932Z,10.33
2022-12-10T02:15:27.105Z,10.00
2022-12-10T02:18:36.267Z,9.50
2022-12-10T02:21:32.125Z,10.93
2022-12-10T02:24:32.363Z,10.00
2022-12-10T02:27:19.248Z,10.57
2022-12-10T02:30:07.301Z,10.63
2022-12-10T02:32:56.161Z,10.67
2022-12-10T02:35:44.625Z,10.73
2022-12-10T02:38:35.372Z,11.03
2022-12-10T02:41:34.124Z,9.73
2022-12-10T02:44:22.753Z,9.30
2022-12-10T02:47:11.120Z,9.97
2022-12-10T02:50:00.153Z,10.13
2022-12-10T02:52:47.276Z,9.60
2022-12-10T02:55:41.538Z,10.23
2022-12-10T02:58:50.204Z,9.60
2022-12-10T03:01:43.437Z,10.43
2022-12-10T03:04:40.439Z,10.40
2022-12-10T03:07:39.539Z,10.90
2022-12-10T03:10:56.152Z,11.37
2022-12-10T03:13:46.035Z,10.97
2022-12-10T03:16:37.939Z,12.83
2022-12-10T03:19:32.002Z,11.77
2022-12-10T03:22:21.034Z,10.30
2022-12-10T03:25:09.973Z,10.67
2022-12-10T03:27:59.844Z,9.87
2022-12-10T03:30:48.806Z,9.73
2022-12-10T03:33:35.955Z,10.93
2022-12-10T03:36:23.680Z,8.83
2022-12-10T03:39:11.490Z,8.87
2022-12-10T03:41:58.498Z,9.10
2022-12-10T03:44:45.446Z,8.87
2022-12-10T03:47:32.805Z,9.80
2022-12-10T03:50:19.985Z,9.07
2022-12-10T03:53:06.920Z,8.83
2022-12-10T03:55:53.841Z,9.27
2022-12-10T03:58:40.825Z,10.27
2022-12-10T04:01:27.888Z,10.37
2022-12-10T04:04:14.998Z,9.63
2022-12-10T04:07:01.950Z,9.73
2022-12-10T04:09:48.940Z,9.60
2022-12-10T04:12:35.848Z,9.20
2022-12-10T04:15:41.286Z,8.50
2022-12-10T04:18:28.233Z,9.13
2022-12-10T04:21:34.070Z,9.17
2022-12-10T04:24:44.751Z,9.13
2022-12-10T04:27:34.190Z,9.80
2022-12-10T04:30:21.150Z,9.17
2022-12-10T04:33:08.092Z,8.57
2022-12-10T04:35:54.982Z,8.20
2022-12-10T04:38:41.893Z,8.90
2022-12-10T04:41:28.836Z,8.97
2022-12-10T04:44:16.464Z,9.10
2022-12-10T04:47:05.946Z,9.43
2022-12-10T04:49:52.972Z,9.30
2022-12-10T04:52:39.977Z,9.73
2022-12-10T04:55:26.903Z,8.43
2022-12-10T04:58:13.810Z,8.67
2022-12-10T05:01:09.339Z,7.57
2022-12-10T05:04:00.122Z,8.70
2022-12-10T05:06:49.389Z,8.07
2022-12-10T05:09:36.354Z,7.93
2022-12-10T05:12:24.535Z,9.00
2022-12-10T05:15:11.485Z,8.23
2022-12-10T05:17:58.422Z,8.03
2022-12-10T05:20:45.352Z,8.87
2022-12-10T05:23:32.849Z,9.47
2022-12-10T05:26:24.601Z,7.87
2022-12-10T05:29:13.105Z,8.00
2022-12-10T05:32:00.069Z,8.57
2022-12-10T05:34:46.951Z,8.07
2022-12-10T05:37:34.300Z,7.43
2022-12-10T05:40:21.185Z,7.73
2022-12-10T05:43:08.099Z,9.47
2022-12-10T05:45:59.205Z,8.13
2022-12-10T05:48:47.330Z,9.10
2022-12-10T05:51:36.718Z,8.87
2022-12-10T05:54:24.388Z,8.80
2022-12-10T05:57:11.635Z,8.80
2022-12-10T05:59:58.660Z,8.40
2022-12-10T06:02:46.240Z,7.43
2022-12-10T06:05:43.299Z,7.60
2022-12-10T06:08:30.619Z,8.47
2022-12-10T06:11:17.577Z,7.93
2022-12-10T06:14:04.487Z,9.03
2022-12-10T06:16:51.410Z,8.17
2022-12-10T06:19:38.296Z,8.27
2022-12-10T06:22:25.203Z,8.50
2022-12-10T06:25:12.633Z,7.97
2022-12-10T06:28:00.044Z,8.37
2022-12-10T06:30:47.424Z,8.23
2022-12-10T06:33:34.628Z,8.27
2022-12-10T06:36:22.067Z,8.00
2022-12-10T06:39:09.274Z,8.23
2022-12-10T06:41:58.975Z,9.23
2022-12-10T06:44:46.403Z,10.53
2022-12-10T06:47:33.328Z,11.43
2022-12-10T06:50:20.246Z,9.50
2022-12-10T06:53:07.173Z,9.77
2022-12-10T06:55:54.122Z,9.60
2022-12-10T06:58:42.971Z,9.27
2022-12-10T07:01:30.678Z,9.33
2022-12-10T07:04:18.203Z,9.33
2022-12-10T07:07:09.692Z,9.90
2022-12-10T07:09:58.125Z,9.87
2022-12-10T07:12:46.365Z,9.57
2022-12-10T07:15:33.697Z,9.13
2022-12-10T07:18:21.050Z,9.33
2022-12-10T07:21:14.472Z,8.67
2022-12-10T07:24:03.893Z,10.40
2022-12-10T07:26:51.240Z,10.67
2022-12-10T07:29:38.611Z,10.80
2022-12-10T07:32:26.021Z,10.30
2022-12-10T07:35:13.363Z,10.10
2022-12-10T07:38:00.745Z,9.77
2022-12-10T07:40:48.093Z,9.73
2022-12-10T07:43:36.275Z,9.50
2022-12-10T07:46:25.479Z,9.67
2022-12-10T07:49:12.871Z,9.87
2022-12-10T07:52:00.202Z,9.10
2022-12-10T07:54:47.533Z,9.23
2022-12-10T07:57:34.903Z,12.95
2022-12-10T08:00:22.257Z,10.27
2022-12-10T08:03:09.701Z,10.23
2022-12-10T08:06:04.724Z,9.30
2022-12-10T08:08:52.190Z,10.93
2022-12-10T08:11:39.551Z,8.50
2022-12-10T08:14:26.902Z,8.80
2022-12-10T08:17:14.239Z,9.57
2022-12-10T08:20:01.565Z,10.87
2022-12-10T08:22:49.010Z,10.30
2022-12-10T08:25:40.609Z,9.60
2022-12-10T08:28:28.169Z,8.60
2022-12-10T08:31:16.233Z,8.63
2022-12-10T08:34:03.692Z,9.47
2022-12-10T08:36:51.029Z,13.47
2022-12-10T08:39:38.443Z,9.63
2022-12-10T08:42:25.773Z,9.33
2022-12-10T08:45:13.110Z,10.50
2022-12-10T08:48:00.596Z,10.00
2022-12-10T08:50:47.969Z,10.10
2022-12-10T08:53:36.180Z,9.63
2022-12-10T08:56:23.533Z,8.80
2022-12-10T08:59:10.879Z,10.27
2022-12-10T09:01:58.259Z,9.63
2022-12-10T09:04:47.112Z,10.17
2022-12-10T09:07:34.458Z,10.50
2022-12-10T09:10:22.847Z,9.67
2022-12-10T09:13:10.192Z,9.00
2022-12-10T09:15:57.508Z,9.40
2022-12-10T09:18:45.203Z,9.17
2022-12-10T09:21:32.963Z,9.03
2022-12-10T09:24:20.327Z,7.87
2022-12-10T09:27:07.739Z,8.60
2022-12-10T09:29:55.072Z,9.17
2022-12-10T09:32:42.559Z,8.63
2022-12-10T09:35:29.937Z,8.67
2022-12-10T09:38:17.849Z,8.23
2022-12-10T09:41:06.874Z,8.13
2022-12-10T09:44:17.492Z,7.57
2022-12-10T09:47:06.889Z,7.53
2022-12-10T09:49:57.345Z,8.00
2022-12-10T09:52:48.299Z,8.37
2022-12-10T09:55:41.820Z,8.73
2022-12-10T09:58:30.210Z,8.33
2022-12-10T10:01:19.683Z,8.23
2022-12-10T10:04:07.124Z,9.17
2022-12-10T10:06:54.739Z,7.73
2022-12-10T10:09:42.623Z,7.07
2022-12-10T10:12:31.487Z,8.13
2022-12-10T10:15:21.522Z,7.57
2022-12-10T10:18:27.523Z,8.10
2022-12-10T10:21:22.279Z,10.67
2022-12-10T10:24:13.979Z,6.97
2022-12-10T10:27:03.316Z,7.03
2022-12-10T10:29:56.065Z,6.60
2022-12-10T10:32:48.589Z,8.75
2022-12-10T10:35:43.356Z,7.47
2022-12-10T10:38:31.766Z,7.23
2022-12-10T10:41:19.143Z,9.68
2022-12-10T10:44:06.923Z,7.33
2022-12-10T10:46:54.931Z,9.95
2022-12-10T10:49:45.939Z,7.67
2022-12-10T10:52:40.421Z,7.80
2022-12-10T10:55:36.589Z,8.57
2022-12-10T10:58:26.311Z,7.33
2022-12-10T11:01:15.369Z,7.80
2022-12-10T11:04:03.050Z,6.50
2022-12-10T11:06:51.916Z,6.30
2022-12-10T11:09:39.432Z,6.60
2022-12-10T11:12:26.771Z,6.73
2022-12-10T11:15:23.260Z,6.53
2022-12-10T11:18:25.078Z,6.83
2022-12-10T11:21:17.219Z,6.90
2022-12-10T11:24:12.086Z,6.80
2022-12-10T11:27:04.476Z,6.63
2022-12-10T11:30:07.461Z,6.20
2022-12-10T11:33:09.286Z,6.37
2022-12-10T11:36:16.049Z,6.70
2022-12-10T11:39:10.320Z,6.80
2022-12-10T11:42:05.450Z,6.43
2022-12-10T11:44:56.200Z,6.63
2022-12-10T11:47:52.697Z,7.10
2022-12-10T11:50:52.057Z,6.80
2022-12-10T11:54:05.118Z,7.43
2022-12-10T11:56:58.422Z,6.90
2022-12-10T12:00:05.073Z,7.00
2022-12-10T12:03:08.482Z,7.27
2022-12-10T12:06:11.434Z,7.17
2022-12-10T12:09:01.672Z,7.43
2022-12-10T12:12:05.941Z,6.73
2022-12-10T12:14:56.146Z,6.83
2022-12-10T12:17:45.115Z,6.83
2022-12-10T12:20:36.518Z,7.33
2022-12-10T12:23:38.471Z,6.50
2022-12-10T12:26:29.535Z,7.20
2022-12-10T12:29:23.346Z,6.57
2022-12-10T12:32:32.797Z,9.52
2022-12-10T12:35:28.871Z,6.87
2022-12-10T12:38:34.266Z,6.87
2022-12-10T12:41:41.880Z,6.20
2022-12-10T12:44:48.126Z,7.50
2022-12-10T12:47:41.749Z,6.97
2022-12-10T12:50:39.046Z,7.33
2022-12-10T12:53:31.643Z,8.27
2022-12-10T12:56:28.249Z,7.73
2022-12-10T12:59:21.640Z,6.73
2022-12-10T13:02:21.939Z,6.90
2022-12-10T13:05:18.051Z,6.47
2022-12-10T13:08:20.600Z,6.47
2022-12-10T13:11:14.411Z,6.63
2022-12-10T13:14:04.932Z,6.80
2022-12-10T13:17:00.595Z,7.83
2022-12-10T13:19:47.930Z,7.93
2022-12-10T13:22:43.490Z,7.20
2022-12-10T13:25:41.496Z,6.80
2022-12-10T13:28:39.885Z,7.07
2022-12-10T13:31:30.110Z,6.80
2022-12-10T13:34:30.818Z,6.23
2022-12-10T13:37:20.162Z,6.63
2022-12-10T13:40:10.879Z,6.93
2022-12-10T13:43:19.075Z,6.63
2022-12-10T13:46:27.211Z,8.33
2022-12-10T13:49:18.476Z,6.73
2022-12-10T13:52:07.209Z,6.80
2022-12-10T13:55:20.681Z,7.00
2022-12-10T13:58:08.465Z,6.73
2022-12-10T14:01:00.270Z,7.60
2022-12-10T14:04:16.937Z,6.83
2022-12-10T14:07:04.493Z,8.10
2022-12-10T14:09:54.483Z,7.20
2022-12-10T14:12:43.437Z,7.00
2022-12-10T14:15:31.633Z,8.27
2022-12-10T14:18:19.421Z,7.27
2022-12-10T14:21:07.704Z,7.77
2022-12-10T14:23:56.718Z,6.83
2022-12-10T14:26:44.447Z,13.20
2022-12-10T14:29:32.115Z,7.10
2022-12-10T14:32:21.354Z,7.20
2022-12-10T14:35:09.856Z,8.43
2022-12-10T14:37:58.605Z,7.90
2022-12-10T14:40:46.974Z,7.10
2022-12-10T14:43:37.827Z,7.47
2022-12-10T14:46:26.560Z,8.20
2022-12-10T14:49:17.411Z,10.63
2022-12-10T14:52:04.730Z,7.87
2022-12-10T14:54:52.657Z,7.03
2022-12-10T14:57:41.821Z,7.10
2022-12-10T15:00:29.745Z,7.07
2022-12-10T15:03:24.870Z,6.53
2022-12-10T15:06:12.328Z,6.03
2022-12-10T15:09:00.599Z,6.20
2022-12-10T15:11:54.485Z,6.20
2022-12-10T15:14:44.642Z,6.47
2022-12-10T15:17:36.000Z,6.37
2022-12-10T15:20:25.537Z,6.57
2022-12-10T15:23:16.025Z,6.40
2022-12-10T15:26:06.676Z,5.70
2022-12-10T15:29:19.787Z,6.13
2022-12-10T15:32:18.384Z,6.47
2022-12-10T15:35:08.257Z,5.90
2022-12-10T15:37:57.173Z,6.20
2022-12-10T15:40:44.827Z,6.90
2022-12-10T15:43:32.494Z,6.20
2022-12-10T15:46:20.092Z,6.90
2022-12-10T15:49:07.508Z,6.13
2022-12-10T15:51:54.984Z,5.83
2022-12-10T15:54:44.145Z,5.70
2022-12-10T15:57:36.107Z,6.33
2022-12-10T16:00:24.790Z,5.43
2022-12-10T16:03:13.593Z,5.67
2022-12-10T16:06:01.113Z,5.50
2022-12-10T16:08:48.523Z,5.83
2022-12-10T16:11:36.022Z,5.77
2022-12-10T16:14:23.390Z,5.93
2022-12-10T16:17:11.941Z,6.27
2022-12-10T16:20:18.648Z,6.23
2022-12-10T16:23:09.071Z,5.83
2022-12-10T16:25:56.652Z,6.87
2022-12-10T16:28:44.723Z,7.20
2022-12-10T16:31:32.154Z,6.97
2022-12-10T16:34:19.529Z,6.67
2022-12-10T16:37:07.119Z,6.97
2022-12-10T16:39:58.613Z,5.90
2022-12-10T16:42:48.996Z,5.83
2022-12-10T16:45:37.786Z,6.43
2022-12-10T16:48:25.742Z,7.20
2022-12-10T16:51:29.842Z,6.43
2022-12-10T16:54:17.378Z,6.33
2022-12-10T16:57:06.270Z,7.37
2022-12-10T16:59:53.647Z,6.13
2022-12-10T17:02:41.083Z,5.73
2022-12-10T17:05:33.498Z,7.00
2022-12-10T17:08:21.521Z,6.80
2022-12-10T17:11:48.993Z,5.97
2022-12-10T17:14:40.733Z,6.53
2022-12-10T17:17:28.534Z,6.60
2022-12-10T17:20:17.687Z,7.00
2022-12-10T17:23:05.864Z,6.33
2022-12-10T17:25:54.820Z,6.13
2022-12-10T17:28:42.462Z,7.87
2022-12-10T17:31:29.917Z,7.90
2022-12-10T17:34:17.832Z,9.53
2022-12-10T17:37:15.487Z,12.13
2022-12-10T17:40:02.893Z,9.67
2022-12-10T17:42:51.104Z,7.07
2022-12-10T17:45:38.749Z,6.47
2022-12-10T17:48:26.230Z,6.57
2022-12-10T17:51:14.069Z,8.90
2022-12-10T17:54:01.740Z,9.47
2022-12-10T17:56:49.086Z,7.77
2022-12-10T17:59:36.449Z,10.75
2022-12-10T18:02:23.883Z,8.40
2022-12-10T18:05:11.242Z,7.83
2022-12-10T18:07:58.870Z,7.00
2022-12-10T18:10:46.315Z,7.07
2022-12-10T18:13:34.007Z,6.83
2022-12-10T18:16:28.179Z,6.97
2022-12-10T18:19:16.557Z,7.00
2022-12-10T18:22:03.922Z,6.97
2022-12-10T18:24:51.514Z,6.83
2022-12-10T18:27:38.839Z,8.67
2022-12-10T18:30:26.256Z,8.63
2022-12-10T18:33:15.558Z,7.83
2022-12-10T18:36:02.982Z,7.23
2022-12-10T18:38:50.904Z,8.83
2022-12-10T18:41:38.231Z,7.87
2022-12-10T18:44:27.636Z,7.87
2022-12-10T18:47:14.987Z,8.07
2022-12-10T18:50:02.418Z,7.43
2022-12-10T18:52:49.791Z,8.53
2022-12-10T18:55:37.132Z,7.00
2022-12-10T18:58:24.703Z,7.67
2022-12-10T19:01:13.624Z,7.80
2022-12-10T19:04:01.281Z,7.77
2022-12-10T19:06:49.144Z,7.07
2022-12-10T19:09:38.573Z,6.83
2022-12-10T19:12:26.059Z,7.87
2022-12-10T19:15:14.748Z,10.13
2022-12-10T19:18:03.584Z,8.13
2022-12-10T19:20:54.579Z,7.40
2022-12-10T19:23:45.582Z,7.73
2022-12-10T19:26:34.434Z,6.73
2022-12-10T19:29:23.175Z,6.07
2022-12-10T19:32:10.582Z,6.63
2022-12-10T19:34:57.930Z,7.50
2022-12-10T19:37:46.427Z,8.23
2022-12-10T19:40:35.210Z,7.23
2022-12-10T19:43:22.562Z,6.70
2022-12-10T19:46:17.948Z,6.00
2022-12-10T19:49:05.613Z,6.67
2022-12-10T19:51:53.247Z,6.87
2022-12-10T19:54:40.640Z,6.77
2022-12-10T19:57:28.105Z,6.57
2022-12-10T20:00:21.116Z,6.87
2022-12-10T20:03:08.592Z,7.30
2022-12-10T20:05:55.956Z,7.17
2022-12-10T20:08:43.851Z,6.80
2022-12-10T20:11:31.878Z,6.33
2022-12-10T20:14:19.826Z,7.03
2022-12-10T20:17:07.242Z,7.00
2022-12-10T20:19:54.915Z,7.50
2022-12-10T20:22:42.311Z,7.27
2022-12-10T20:25:29.650Z,6.33
2022-12-10T20:28:17.666Z,6.40
2022-12-10T20:31:05.123Z,6.87
2022-12-10T20:33:52.667Z,6.57
2022-12-10T20:36:40.489Z,5.97
2022-12-10T20:39:32.470Z,6.40
2022-12-10T20:42:19.835Z,6.60
2022-12-10T20:45:07.935Z,6.33
2022-12-10T20:47:55.450Z,5.80
2022-12-10T20:50:43.674Z,6.47
2022-12-10T20:53:35.763Z,5.83
2022-12-10T20:56:26.066Z,6.83
2022-12-10T20:59:14.313Z,6.30
2022-12-10T21:02:02.394Z,6.63
2022-12-10T21:04:49.989Z,7.37
2022-12-10T21:07:37.332Z,6.97
2022-12-10T21:10:43.298Z,6.87
2022-12-10T21:13:30.849Z,6.30
2022-12-10T21:16:20.479Z,6.43
2022-12-10T21:19:07.917Z,6.50
2022-12-10T21:21:55.280Z,6.70
2022-12-10T21:24:42.598Z,6.27
2022-12-10T21:27:29.961Z,6.83
2022-12-10T21:30:18.396Z,6.40
2022-12-10T21:33:05.918Z,6.77
2022-12-10T21:35:55.154Z,7.03
2022-12-10T21:38:42.526Z,6.87
2022-12-10T21:41:48.956Z,7.37
2022-12-10T21:44:36.263Z,6.90
2022-12-10T21:47:23.648Z,6.43
2022-12-10T21:50:11.033Z,6.40
2022-12-10T21:52:58.411Z,6.77
2022-12-10T21:55:45.737Z,5.90
2022-12-10T21:58:33.146Z,6.13
2022-12-10T22:01:20.769Z,6.53
2022-12-10T22:04:09.919Z,6.17
2022-12-10T22:06:59.205Z,6.60
2022-12-10T22:09:46.542Z,6.07
2022-12-10T22:12:33.948Z,6.63
2022-12-10T22:15:21.295Z,6.07
2022-12-10T22:18:09.523Z,6.37
2022-12-10T22:20:58.360Z,6.40
2022-12-10T22:23:45.685Z,6.70
2022-12-10T22:26:33.020Z,6.27
2022-12-10T22:29:20.656Z,6.17
2022-12-10T22:32:08.037Z,6.43
2022-12-10T22:34:55.445Z,7.20
2022-12-10T22:37:42.866Z,6.93
2022-12-10T22:40:30.299Z,7.30
2022-12-10T22:43:48.825Z,6.67
2022-12-10T22:46:25.039Z,6.40
2022-12-10T22:49:12.422Z,7.63
2022-12-10T22:51:59.760Z,6.13
2022-12-10T22:54:47.098Z,6.77
2022-12-10T22:57:34.485Z,7.73
2022-12-10T23:00:22.580Z,7.53
2022-12-10T23:03:09.921Z,7.33
2022-12-10T23:05:58.317Z,7.27
2022-12-10T23:08:45.769Z,6.60
2022-12-10T23:11:33.132Z,6.77
2022-12-10T23:14:20.571Z,6.83
2022-12-10T23:17:07.989Z,6.13
2022-12-10T23:19:55.914Z,6.00
2022-12-10T23:22:43.317Z,7.27
2022-12-10T23:25:30.758Z,7.57
2022-12-10T23:28:18.738Z,7.60
2022-12-10T23:31:06.376Z,7.43
2022-12-10T23:33:53.772Z,7.50
2022-12-10T23:36:41.432Z,7.27
2022-12-10T23:39:28.862Z,7.50
2022-12-10T23:42:16.211Z,7.70
2022-12-10T23:45:04.019Z,7.53
2022-12-10T23:47:51.605Z,8.13
2022-12-10T23:50:39.247Z,7.07
2022-12-10T23:53:26.842Z,8.77
2022-12-10T23:56:18.844Z,8.60
2022-12-10T23:59:06.353Z,7.70
